Aeroporto :
LOGIN :

Iscrizione | Disclaimer

   EN    FR    IT 

 










Sommario :    VFR   VFR Marginale   IFR   IFR Intensivo   IFR Molto Intensivo
Visibilità : 
Base nubi : 
>= 8 km
>= 3000ft
5 / 8 km
1000 / 3000 ft
1500m / 5 km
500 / 1000 ft
800 / 1500m
200 / 500 ft
< 800m
< 200 ft
Simboli :   Temporali  Nebbia  Neve Forte  Precipitazioni Forti  Vento > 20 kt
SIGMETs :   Varie  Temporali  Ghiacco  Turbolenza  Onda orograficha  Ceneri Vulcaniche







- Altitudine del aeroporto : 436 ft
- Codice IATA : BTS


LZIB - Bratislava

ULTIMO METAR :
  • 232300Z VRB01KT CAVOK 07/05 Q1024

METARs OBSOLETI :
  • 232230Z VRB01KT CAVOK 08/05 Q1024
  • 232200Z VRB01KT CAVOK 07/04 Q1025
  • 232130Z 31002KT CAVOK 08/04 Q1025
  • 232100Z 32002KT CAVOK 10/05 Q1025
  • 232030Z 34002KT CAVOK 10/05 Q1025

TAF TAF LZIB
Valido dal 23 a 18 ore il 24 a 18 ore UTC


231700Z 2318/2418 VRB02KT CAVOK
TEMPO 2405/2411 9999 SCT040
BECMG 2407/2409 06008KT
BECMG 2413/2415 22008KT
Nessun NOTAM noto per questo aeroporto.



MetMap, La meteo Aeronautica in un colpo d'occhio ! - Copyright ORBIFLY Dicembre 2007 - Disclaimer

ORBIFLY MET'MAP TEAM :

Programmazione e sviluppo : Alexandra Zaïnal
Concezione e sviluppo : Baudouin d'Aumeries
Co-Programmazione e sviluppo : Marc-Olivier Méhu
Supporto tecnico e logistico : Manuel Goepfert
Aiuto per la traduzione : Arnaldo La Scala

Contatto : metmap@orbifly.com




FONTI E CREDITI :

   NOAA